sensor_id;sensor_type;location;lat;lon;timestamp;temperature;humidity
7658;DHT22;8462;53.156;8.220;2022-07-18T00:00:14;19.80;69.00
7658;DHT22;8462;53.156;8.220;2022-07-18T00:02:41;19.80;68.70
7658;DHT22;8462;53.156;8.220;2022-07-18T00:05:08;19.70;68.50
7658;DHT22;8462;53.156;8.220;2022-07-18T00:07:35;19.70;68.40
7658;DHT22;8462;53.156;8.220;2022-07-18T00:10:04;19.70;68.00
7658;DHT22;8462;53.156;8.220;2022-07-18T00:12:31;19.70;67.80
7658;DHT22;8462;53.156;8.220;2022-07-18T00:14:58;19.70;67.50
7658;DHT22;8462;53.156;8.220;2022-07-18T00:17:24;19.70;67.40
7658;DHT22;8462;53.156;8.220;2022-07-18T00:19:51;19.70;67.20
7658;DHT22;8462;53.156;8.220;2022-07-18T00:22:19;19.70;67.10
7658;DHT22;8462;53.156;8.220;2022-07-18T00:24:46;19.70;66.80
7658;DHT22;8462;53.156;8.220;2022-07-18T00:27:14;19.60;66.70
7658;DHT22;8462;53.156;8.220;2022-07-18T00:29:41;19.60;66.60
7658;DHT22;8462;53.156;8.220;2022-07-18T00:32:08;19.60;66.20
7658;DHT22;8462;53.156;8.220;2022-07-18T00:34:36;19.70;66.20
7658;DHT22;8462;53.156;8.220;2022-07-18T00:37:03;19.60;65.90
7658;DHT22;8462;53.156;8.220;2022-07-18T00:39:30;19.60;66.00
7658;DHT22;8462;53.156;8.220;2022-07-18T00:41:57;19.60;65.70
7658;DHT22;8462;53.156;8.220;2022-07-18T00:44:27;19.60;65.20
7658;DHT22;8462;53.156;8.220;2022-07-18T00:46:56;19.60;65.20
7658;DHT22;8462;53.156;8.220;2022-07-18T00:49:24;19.70;65.30
7658;DHT22;8462;53.156;8.220;2022-07-18T00:51:51;19.60;64.90
7658;DHT22;8462;53.156;8.220;2022-07-18T00:54:19;19.60;64.60
7658;DHT22;8462;53.156;8.220;2022-07-18T00:56:47;19.60;64.70
7658;DHT22;8462;53.156;8.220;2022-07-18T00:59:15;19.50;64.70
7658;DHT22;8462;53.156;8.220;2022-07-18T01:01:43;19.50;64.80
7658;DHT22;8462;53.156;8.220;2022-07-18T01:04:13;19.50;64.90
7658;DHT22;8462;53.156;8.220;2022-07-18T01:06:40;19.40;64.90
7658;DHT22;8462;53.156;8.220;2022-07-18T01:09:08;19.40;65.20
7658;DHT22;8462;53.156;8.220;2022-07-18T01:11:35;19.40;65.10
7658;DHT22;8462;53.156;8.220;2022-07-18T01:14:02;19.30;65.10
7658;DHT22;8462;53.156;8.220;2022-07-18T01:16:30;19.30;65.10
7658;DHT22;8462;53.156;8.220;2022-07-18T01:18:58;19.30;65.10
7658;DHT22;8462;53.156;8.220;2022-07-18T01:21:26;19.30;65.20
7658;DHT22;8462;53.156;8.220;2022-07-18T01:23:53;19.30;65.20
7658;DHT22;8462;53.156;8.220;2022-07-18T01:26:21;19.30;65.10
7658;DHT22;8462;53.156;8.220;2022-07-18T01:28:48;19.20;65.00
7658;DHT22;8462;53.156;8.220;2022-07-18T01:31:15;19.20;65.00
7658;DHT22;8462;53.156;8.220;2022-07-18T01:33:42;19.20;65.30
7658;DHT22;8462;53.156;8.220;2022-07-18T01:36:09;19.10;65.50
7658;DHT22;8462;53.156;8.220;2022-07-18T01:38:38;19.10;66.00
7658;DHT22;8462;53.156;8.220;2022-07-18T01:41:05;19.00;67.00
7658;DHT22;8462;53.156;8.220;2022-07-18T01:43:32;19.00;66.20
7658;DHT22;8462;53.156;8.220;2022-07-18T01:46:03;18.90;66.50
7658;DHT22;8462;53.156;8.220;2022-07-18T01:48:30;18.80;66.60
7658;DHT22;8462;53.156;8.220;2022-07-18T01:50:57;18.80;66.80
7658;DHT22;8462;53.156;8.220;2022-07-18T01:53:24;18.80;67.00
7658;DHT22;8462;53.156;8.220;2022-07-18T01:55:53;18.80;67.10
7658;DHT22;8462;53.156;8.220;2022-07-18T01:58:20;18.80;66.90
7658;DHT22;8462;53.156;8.220;2022-07-18T02:00:47;18.70;67.10
7658;DHT22;8462;53.156;8.220;2022-07-18T02:03:13;18.70;67.30
7658;DHT22;8462;53.156;8.220;2022-07-18T02:05:40;18.60;67.30
7658;DHT22;8462;53.156;8.220;2022-07-18T02:08:07;18.70;67.20
7658;DHT22;8462;53.156;8.220;2022-07-18T02:10:35;18.70;67.40
7658;DHT22;8462;53.156;8.220;2022-07-18T02:13:03;18.60;67.20
7658;DHT22;8462;53.156;8.220;2022-07-18T02:15:30;18.60;67.20
7658;DHT22;8462;53.156;8.220;2022-07-18T02:17:57;18.60;67.30
7658;DHT22;8462;53.156;8.220;2022-07-18T02:20:24;18.60;67.50
7658;DHT22;8462;53.156;8.220;2022-07-18T02:22:51;18.60;67.30
7658;DHT22;8462;53.156;8.220;2022-07-18T02:25:18;18.60;67.30
7658;DHT22;8462;53.156;8.220;2022-07-18T02:27:45;18.60;67.30
7658;DHT22;8462;53.156;8.220;2022-07-18T02:30:13;18.50;67.30
7658;DHT22;8462;53.156;8.220;2022-07-18T02:32:40;18.50;67.60
7658;DHT22;8462;53.156;8.220;2022-07-18T02:35:08;18.50;67.70
7658;DHT22;8462;53.156;8.220;2022-07-18T02:37:36;18.40;68.00
7658;DHT22;8462;53.156;8.220;2022-07-18T02:40:05;18.40;68.10
7658;DHT22;8462;53.156;8.220;2022-07-18T02:42:33;18.40;68.30
7658;DHT22;8462;53.156;8.220;2022-07-18T02:45:00;18.30;68.20
7658;DHT22;8462;53.156;8.220;2022-07-18T02:47:29;18.30;68.30
7658;DHT22;8462;53.156;8.220;2022-07-18T02:49:55;18.30;68.30
7658;DHT22;8462;53.156;8.220;2022-07-18T02:52:22;18.30;68.40
7658;DHT22;8462;53.156;8.220;2022-07-18T02:54:50;18.30;68.40
7658;DHT22;8462;53.156;8.220;2022-07-18T02:57:17;18.40;68.30
7658;DHT22;8462;53.156;8.220;2022-07-18T02:59:44;18.40;68.20
7658;DHT22;8462;53.156;8.220;2022-07-18T03:02:11;18.40;68.30
7658;DHT22;8462;53.156;8.220;2022-07-18T03:04:39;18.40;68.30
7658;DHT22;8462;53.156;8.220;2022-07-18T03:07:06;18.40;68.00
7658;DHT22;8462;53.156;8.220;2022-07-18T03:09:33;18.40;68.00
7658;DHT22;8462;53.156;8.220;2022-07-18T03:12:00;18.40;67.80
7658;DHT22;8462;53.156;8.220;2022-07-18T03:14:27;18.40;67.60
7658;DHT22;8462;53.156;8.220;2022-07-18T03:16:54;18.40;67.60
7658;DHT22;8462;53.156;8.220;2022-07-18T03:19:21;18.40;67.80
7658;DHT22;8462;53.156;8.220;2022-07-18T03:21:49;18.40;68.90
7658;DHT22;8462;53.156;8.220;2022-07-18T03:24:16;18.40;67.90
7658;DHT22;8462;53.156;8.220;2022-07-18T03:26:43;18.40;67.90
7658;DHT22;8462;53.156;8.220;2022-07-18T03:29:10;18.40;67.70
7658;DHT22;8462;53.156;8.220;2022-07-18T03:31:38;18.40;67.70
7658;DHT22;8462;53.156;8.220;2022-07-18T03:34:05;18.50;67.70
7658;DHT22;8462;53.156;8.220;2022-07-18T03:36:33;18.50;67.70
7658;DHT22;8462;53.156;8.220;2022-07-18T03:39:02;18.50;67.50
7658;DHT22;8462;53.156;8.220;2022-07-18T03:41:28;18.50;67.40
7658;DHT22;8462;53.156;8.220;2022-07-18T03:43:55;18.50;67.40
7658;DHT22;8462;53.156;8.220;2022-07-18T03:46:22;18.60;67.20
7658;DHT22;8462;53.156;8.220;2022-07-18T03:48:49;18.60;67.10
7658;DHT22;8462;53.156;8.220;2022-07-18T03:51:16;18.70;67.10
7658;DHT22;8462;53.156;8.220;2022-07-18T03:53:43;18.70;66.90
7658;DHT22;8462;53.156;8.220;2022-07-18T03:56:11;18.80;66.90
7658;DHT22;8462;53.156;8.220;2022-07-18T03:58:38;18.80;66.80
7658;DHT22;8462;53.156;8.220;2022-07-18T04:01:05;18.90;66.60
7658;DHT22;8462;53.156;8.220;2022-07-18T04:03:32;18.90;66.30
7658;DHT22;8462;53.156;8.220;2022-07-18T04:05:59;18.90;66.10
7658;DHT22;8462;53.156;8.220;2022-07-18T04:08:26;18.90;66.20
7658;DHT22;8462;53.156;8.220;2022-07-18T04:10:53;19.00;66.20
7658;DHT22;8462;53.156;8.220;2022-07-18T04:13:22;19.10;66.00
7658;DHT22;8462;53.156;8.220;2022-07-18T04:15:49;19.10;66.50
7658;DHT22;8462;53.156;8.220;2022-07-18T04:18:16;19.20;65.70
7658;DHT22;8462;53.156;8.220;2022-07-18T04:20:42;19.30;65.20
7658;DHT22;8462;53.156;8.220;2022-07-18T04:23:10;19.30;65.10
7658;DHT22;8462;53.156;8.220;2022-07-18T04:25:39;19.40;65.00
7658;DHT22;8462;53.156;8.220;2022-07-18T04:28:07;19.60;64.70
7658;DHT22;8462;53.156;8.220;2022-07-18T04:30:36;19.60;63.90
7658;DHT22;8462;53.156;8.220;2022-07-18T04:33:06;19.70;63.90
7658;DHT22;8462;53.156;8.220;2022-07-18T04:35:34;19.80;63.60
7658;DHT22;8462;53.156;8.220;2022-07-18T04:38:01;19.90;63.30
7658;DHT22;8462;53.156;8.220;2022-07-18T04:40:28;20.00;63.10
7658;DHT22;8462;53.156;8.220;2022-07-18T04:42:55;20.00;62.90
7658;DHT22;8462;53.156;8.220;2022-07-18T04:45:23;20.10;62.40
7658;DHT22;8462;53.156;8.220;2022-07-18T04:47:51;20.20;62.30
7658;DHT22;8462;53.156;8.220;2022-07-18T04:50:19;20.30;62.30
7658;DHT22;8462;53.156;8.220;2022-07-18T04:52:48;20.40;61.40
7658;DHT22;8462;53.156;8.220;2022-07-18T04:55:17;20.50;61.50
7658;DHT22;8462;53.156;8.220;2022-07-18T04:57:47;20.60;60.90
7658;DHT22;8462;53.156;8.220;2022-07-18T05:00:16;20.70;60.60
7658;DHT22;8462;53.156;8.220;2022-07-18T05:02:44;20.70;60.70
7658;DHT22;8462;53.156;8.220;2022-07-18T05:05:15;20.90;60.60
7658;DHT22;8462;53.156;8.220;2022-07-18T05:07:44;20.90;60.20
7658;DHT22;8462;53.156;8.220;2022-07-18T05:10:13;21.00;60.00
7658;DHT22;8462;53.156;8.220;2022-07-18T05:12:43;21.10;59.70
7658;DHT22;8462;53.156;8.220;2022-07-18T05:15:12;21.10;59.60
7658;DHT22;8462;53.156;8.220;2022-07-18T05:17:40;21.20;59.70
7658;DHT22;8462;53.156;8.220;2022-07-18T05:20:09;21.20;59.50
7658;DHT22;8462;53.156;8.220;2022-07-18T05:22:39;21.10;59.20
7658;DHT22;8462;53.156;8.220;2022-07-18T05:25:07;21.10;59.30
7658;DHT22;8462;53.156;8.220;2022-07-18T05:27:34;21.00;59.00
7658;DHT22;8462;53.156;8.220;2022-07-18T05:30:01;21.00;58.90
7658;DHT22;8462;53.156;8.220;2022-07-18T05:32:29;20.90;59.00
7658;DHT22;8462;53.156;8.220;2022-07-18T05:34:56;21.00;59.20
7658;DHT22;8462;53.156;8.220;2022-07-18T05:37:24;21.00;58.70
7658;DHT22;8462;53.156;8.220;2022-07-18T05:39:52;21.10;58.50
7658;DHT22;8462;53.156;8.220;2022-07-18T05:42:19;21.20;58.60
7658;DHT22;8462;53.156;8.220;2022-07-18T05:44:46;21.30;58.50
7658;DHT22;8462;53.156;8.220;2022-07-18T05:47:13;21.50;58.20
7658;DHT22;8462;53.156;8.220;2022-07-18T05:49:40;21.60;58.20
7658;DHT22;8462;53.156;8.220;2022-07-18T05:52:07;21.90;57.70
7658;DHT22;8462;53.156;8.220;2022-07-18T05:54:34;22.30;56.70
7658;DHT22;8462;53.156;8.220;2022-07-18T05:57:03;22.80;55.60
7658;DHT22;8462;53.156;8.220;2022-07-18T05:59:30;23.50;54.90
7658;DHT22;8462;53.156;8.220;2022-07-18T06:01:57;24.50;51.70
7658;DHT22;8462;53.156;8.220;2022-07-18T06:04:24;25.00;50.50
7658;DHT22;8462;53.156;8.220;2022-07-18T06:06:52;25.10;48.50
7658;DHT22;8462;53.156;8.220;2022-07-18T06:09:18;25.10;48.50
7658;DHT22;8462;53.156;8.220;2022-07-18T06:11:45;25.00;48.50
7658;DHT22;8462;53.156;8.220;2022-07-18T06:14:14;25.10;49.80
7658;DHT22;8462;53.156;8.220;2022-07-18T06:16:41;25.40;48.80
7658;DHT22;8462;53.156;8.220;2022-07-18T06:19:08;25.90;49.10
7658;DHT22;8462;53.156;8.220;2022-07-18T06:21:35;26.30;46.70
7658;DHT22;8462;53.156;8.220;2022-07-18T06:24:02;26.40;46.10
7658;DHT22;8462;53.156;8.220;2022-07-18T06:26:29;26.30;45.90
7658;DHT22;8462;53.156;8.220;2022-07-18T06:28:56;26.20;45.70
7658;DHT22;8462;53.156;8.220;2022-07-18T06:31:24;26.10;45.80
7658;DHT22;8462;53.156;8.220;2022-07-18T06:33:51;26.00;46.10
7658;DHT22;8462;53.156;8.220;2022-07-18T06:36:18;25.90;46.50
7658;DHT22;8462;53.156;8.220;2022-07-18T06:38:47;25.90;46.90
7658;DHT22;8462;53.156;8.220;2022-07-18T06:41:14;25.90;46.70
7658;DHT22;8462;53.156;8.220;2022-07-18T06:43:41;26.00;46.70
7658;DHT22;8462;53.156;8.220;2022-07-18T06:46:08;26.30;46.30
7658;DHT22;8462;53.156;8.220;2022-07-18T06:48:36;26.60;45.60
7658;DHT22;8462;53.156;8.220;2022-07-18T06:51:04;26.90;45.70
7658;DHT22;8462;53.156;8.220;2022-07-18T06:53:32;27.40;46.20
7658;DHT22;8462;53.156;8.220;2022-07-18T06:55:59;27.90;43.60
7658;DHT22;8462;53.156;8.220;2022-07-18T06:58:28;28.50;42.90
7658;DHT22;8462;53.156;8.220;2022-07-18T07:00:56;28.80;42.20
7658;DHT22;8462;53.156;8.220;2022-07-18T07:03:23;28.90;41.20
7658;DHT22;8462;53.156;8.220;2022-07-18T07:05:51;29.00;41.10
7658;DHT22;8462;53.156;8.220;2022-07-18T07:08:18;29.10;40.70
7658;DHT22;8462;53.156;8.220;2022-07-18T07:10:45;29.10;40.80
7658;DHT22;8462;53.156;8.220;2022-07-18T07:13:12;28.90;40.40
7658;DHT22;8462;53.156;8.220;2022-07-18T07:15:38;28.70;40.70
7658;DHT22;8462;53.156;8.220;2022-07-18T07:18:06;28.50;41.00
7658;DHT22;8462;53.156;8.220;2022-07-18T07:20:33;28.30;41.40
7658;DHT22;8462;53.156;8.220;2022-07-18T07:23:01;28.30;41.00
7658;DHT22;8462;53.156;8.220;2022-07-18T07:25:32;28.30;41.20
7658;DHT22;8462;53.156;8.220;2022-07-18T07:27:59;28.40;41.00
7658;DHT22;8462;53.156;8.220;2022-07-18T07:30:26;28.50;41.00
7658;DHT22;8462;53.156;8.220;2022-07-18T07:32:53;28.70;40.40
7658;DHT22;8462;53.156;8.220;2022-07-18T07:35:20;29.00;40.60
7658;DHT22;8462;53.156;8.220;2022-07-18T07:37:50;29.30;39.60
7658;DHT22;8462;53.156;8.220;2022-07-18T07:40:20;29.70;39.60
7658;DHT22;8462;53.156;8.220;2022-07-18T07:42:47;30.00;38.40
7658;DHT22;8462;53.156;8.220;2022-07-18T07:45:14;30.30;39.00
7658;DHT22;8462;53.156;8.220;2022-07-18T07:47:43;30.70;38.30
7658;DHT22;8462;53.156;8.220;2022-07-18T07:50:12;31.00;37.50
7658;DHT22;8462;53.156;8.220;2022-07-18T07:52:39;31.20;37.50
7658;DHT22;8462;53.156;8.220;2022-07-18T07:55:06;31.30;36.50
7658;DHT22;8462;53.156;8.220;2022-07-18T07:57:35;31.20;37.00
7658;DHT22;8462;53.156;8.220;2022-07-18T08:00:04;31.00;36.80
7658;DHT22;8462;53.156;8.220;2022-07-18T08:02:48;30.60;36.50
7658;DHT22;8462;53.156;8.220;2022-07-18T08:05:16;30.20;37.00
7658;DHT22;8462;53.156;8.220;2022-07-18T08:07:44;30.00;37.80
7658;DHT22;8462;53.156;8.220;2022-07-18T08:10:14;29.90;38.10
7658;DHT22;8462;53.156;8.220;2022-07-18T08:12:44;29.70;38.10
7658;DHT22;8462;53.156;8.220;2022-07-18T08:15:12;29.70;37.70
7658;DHT22;8462;53.156;8.220;2022-07-18T08:17:39;29.60;38.00
7658;DHT22;8462;53.156;8.220;2022-07-18T08:20:08;29.60;38.20
7658;DHT22;8462;53.156;8.220;2022-07-18T08:22:36;29.80;38.10
7658;DHT22;8462;53.156;8.220;2022-07-18T08:25:05;29.70;37.70
7658;DHT22;8462;53.156;8.220;2022-07-18T08:27:32;29.70;37.70
7658;DHT22;8462;53.156;8.220;2022-07-18T08:30:00;29.60;37.50
7658;DHT22;8462;53.156;8.220;2022-07-18T08:32:27;29.60;37.30
7658;DHT22;8462;53.156;8.220;2022-07-18T08:34:54;29.50;37.80
7658;DHT22;8462;53.156;8.220;2022-07-18T08:37:21;29.50;37.80
7658;DHT22;8462;53.156;8.220;2022-07-18T08:39:48;29.40;37.30
7658;DHT22;8462;53.156;8.220;2022-07-18T08:42:16;29.40;37.30
7658;DHT22;8462;53.156;8.220;2022-07-18T08:44:45;29.40;37.50
7658;DHT22;8462;53.156;8.220;2022-07-18T08:47:16;29.40;37.60
7658;DHT22;8462;53.156;8.220;2022-07-18T08:49:44;29.50;37.50
7658;DHT22;8462;53.156;8.220;2022-07-18T08:52:11;29.50;36.90
7658;DHT22;8462;53.156;8.220;2022-07-18T08:54:38;29.60;36.80
7658;DHT22;8462;53.156;8.220;2022-07-18T08:57:05;29.80;36.80
7658;DHT22;8462;53.156;8.220;2022-07-18T08:59:32;30.00;36.40
7658;DHT22;8462;53.156;8.220;2022-07-18T09:01:59;30.10;35.60
7658;DHT22;8462;53.156;8.220;2022-07-18T09:04:36;30.30;35.70
7658;DHT22;8462;53.156;8.220;2022-07-18T09:07:04;30.40;36.20
7658;DHT22;8462;53.156;8.220;2022-07-18T09:09:32;30.40;35.80
7658;DHT22;8462;53.156;8.220;2022-07-18T09:12:02;30.50;34.70
7658;DHT22;8462;53.156;8.220;2022-07-18T09:14:34;30.70;34.50
7658;DHT22;8462;53.156;8.220;2022-07-18T09:17:08;30.90;33.50
7658;DHT22;8462;53.156;8.220;2022-07-18T09:19:38;31.10;33.50
7658;DHT22;8462;53.156;8.220;2022-07-18T09:22:16;31.30;33.90
7658;DHT22;8462;53.156;8.220;2022-07-18T09:24:53;31.50;34.20
7658;DHT22;8462;53.156;8.220;2022-07-18T09:27:32;31.80;33.50
7658;DHT22;8462;53.156;8.220;2022-07-18T09:30:24;31.90;33.30
7658;DHT22;8462;53.156;8.220;2022-07-18T09:32:54;32.10;32.20
7658;DHT22;8462;53.156;8.220;2022-07-18T09:35:26;32.30;32.30
7658;DHT22;8462;53.156;8.220;2022-07-18T09:38:02;32.50;32.00
7658;DHT22;8462;53.156;8.220;2022-07-18T09:40:32;32.60;31.20
7658;DHT22;8462;53.156;8.220;2022-07-18T09:43:01;32.60;31.80
7658;DHT22;8462;53.156;8.220;2022-07-18T09:45:30;32.70;31.30
7658;DHT22;8462;53.156;8.220;2022-07-18T09:47:59;32.80;30.70
7658;DHT22;8462;53.156;8.220;2022-07-18T09:50:30;32.80;30.80
7658;DHT22;8462;53.156;8.220;2022-07-18T09:53:11;32.70;30.40
7658;DHT22;8462;53.156;8.220;2022-07-18T09:55:44;32.60;30.60
7658;DHT22;8462;53.156;8.220;2022-07-18T09:58:11;32.60;30.40
7658;DHT22;8462;53.156;8.220;2022-07-18T10:00:39;32.50;30.40
7658;DHT22;8462;53.156;8.220;2022-07-18T10:03:08;32.60;31.00
7658;DHT22;8462;53.156;8.220;2022-07-18T10:05:37;32.50;30.40
7658;DHT22;8462;53.156;8.220;2022-07-18T10:08:07;32.60;30.60
7658;DHT22;8462;53.156;8.220;2022-07-18T10:10:36;32.70;30.60
7658;DHT22;8462;53.156;8.220;2022-07-18T10:13:05;32.70;30.10
7658;DHT22;8462;53.156;8.220;2022-07-18T10:15:33;32.80;30.70
7658;DHT22;8462;53.156;8.220;2022-07-18T10:18:02;32.80;30.50
7658;DHT22;8462;53.156;8.220;2022-07-18T10:20:33;33.00;29.90
7658;DHT22;8462;53.156;8.220;2022-07-18T10:23:08;32.90;29.70
7658;DHT22;8462;53.156;8.220;2022-07-18T10:25:36;32.90;29.80
7658;DHT22;8462;53.156;8.220;2022-07-18T10:28:07;33.00;29.60
7658;DHT22;8462;53.156;8.220;2022-07-18T10:30:36;33.00;29.40
7658;DHT22;8462;53.156;8.220;2022-07-18T10:33:39;33.10;29.00
7658;DHT22;8462;53.156;8.220;2022-07-18T10:36:08;33.20;28.70
7658;DHT22;8462;53.156;8.220;2022-07-18T10:38:37;33.20;29.00
7658;DHT22;8462;53.156;8.220;2022-07-18T10:41:12;33.40;29.10
7658;DHT22;8462;53.156;8.220;2022-07-18T10:43:43;33.60;29.20
7658;DHT22;8462;53.156;8.220;2022-07-18T10:46:12;33.70;29.00
7658;DHT22;8462;53.156;8.220;2022-07-18T10:48:54;33.70;28.60
7658;DHT22;8462;53.156;8.220;2022-07-18T10:51:29;33.50;28.50
7658;DHT22;8462;53.156;8.220;2022-07-18T10:54:10;33.40;28.40
7658;DHT22;8462;53.156;8.220;2022-07-18T10:57:10;33.40;28.90
7658;DHT22;8462;53.156;8.220;2022-07-18T10:59:53;33.60;28.60
7658;DHT22;8462;53.156;8.220;2022-07-18T11:02:34;33.50;28.70
7658;DHT22;8462;53.156;8.220;2022-07-18T11:05:01;33.50;28.50
7658;DHT22;8462;53.156;8.220;2022-07-18T11:07:29;33.40;28.40
7658;DHT22;8462;53.156;8.220;2022-07-18T11:09:58;33.40;28.70
7658;DHT22;8462;53.156;8.220;2022-07-18T11:12:26;33.40;28.20
7658;DHT22;8462;53.156;8.220;2022-07-18T11:15:13;33.40;28.40
7658;DHT22;8462;53.156;8.220;2022-07-18T11:17:58;33.40;28.20
7658;DHT22;8462;53.156;8.220;2022-07-18T11:20:36;33.40;28.60
7658;DHT22;8462;53.156;8.220;2022-07-18T11:23:05;33.60;28.60
7658;DHT22;8462;53.156;8.220;2022-07-18T11:25:40;33.70;28.50
7658;DHT22;8462;53.156;8.220;2022-07-18T11:28:08;33.80;28.30
7658;DHT22;8462;53.156;8.220;2022-07-18T11:30:35;33.80;28.30
7658;DHT22;8462;53.156;8.220;2022-07-18T11:33:03;33.80;28.20
7658;DHT22;8462;53.156;8.220;2022-07-18T11:35:31;33.90;28.10
7658;DHT22;8462;53.156;8.220;2022-07-18T11:38:04;33.90;28.20
7658;DHT22;8462;53.156;8.220;2022-07-18T11:40:31;34.20;28.20
7658;DHT22;8462;53.156;8.220;2022-07-18T11:42:59;34.30;28.20
7658;DHT22;8462;53.156;8.220;2022-07-18T11:45:26;34.40;27.70
7658;DHT22;8462;53.156;8.220;2022-07-18T11:47:53;34.60;27.80
7658;DHT22;8462;53.156;8.220;2022-07-18T11:50:33;34.60;27.30
7658;DHT22;8462;53.156;8.220;2022-07-18T11:53:01;34.60;27.70
7658;DHT22;8462;53.156;8.220;2022-07-18T11:55:36;34.60;27.50
7658;DHT22;8462;53.156;8.220;2022-07-18T11:58:08;34.50;27.70
7658;DHT22;8462;53.156;8.220;2022-07-18T12:00:36;34.60;27.50
7658;DHT22;8462;53.156;8.220;2022-07-18T12:03:07;34.60;27.80
7658;DHT22;8462;53.156;8.220;2022-07-18T12:05:36;34.50;27.80
7658;DHT22;8462;53.156;8.220;2022-07-18T12:08:33;34.40;27.80
7658;DHT22;8462;53.156;8.220;2022-07-18T12:11:12;34.30;28.20
7658;DHT22;8462;53.156;8.220;2022-07-18T12:13:46;34.20;28.10
7658;DHT22;8462;53.156;8.220;2022-07-18T12:16:31;34.20;28.20
7658;DHT22;8462;53.156;8.220;2022-07-18T12:19:06;34.30;28.30
7658;DHT22;8462;53.156;8.220;2022-07-18T12:21:44;34.30;28.20
7658;DHT22;8462;53.156;8.220;2022-07-18T12:24:26;34.20;28.20
7658;DHT22;8462;53.156;8.220;2022-07-18T12:27:13;34.20;28.60
7658;DHT22;8462;53.156;8.220;2022-07-18T12:30:17;34.10;29.20
7658;DHT22;8462;53.156;8.220;2022-07-18T12:32:46;33.90;29.20
7658;DHT22;8462;53.156;8.220;2022-07-18T12:35:17;33.80;29.20
7658;DHT22;8462;53.156;8.220;2022-07-18T12:37:56;33.80;28.80
7658;DHT22;8462;53.156;8.220;2022-07-18T12:40:24;33.70;29.30
7658;DHT22;8462;53.156;8.220;2022-07-18T12:43:02;33.60;28.30
7658;DHT22;8462;53.156;8.220;2022-07-18T12:45:30;33.60;29.00
7658;DHT22;8462;53.156;8.220;2022-07-18T12:47:58;33.50;29.50
7658;DHT22;8462;53.156;8.220;2022-07-18T12:50:25;33.40;29.60
7658;DHT22;8462;53.156;8.220;2022-07-18T12:52:52;33.30;29.60
7658;DHT22;8462;53.156;8.220;2022-07-18T12:55:19;33.30;29.70
7658;DHT22;8462;53.156;8.220;2022-07-18T12:57:48;33.30;29.80
7658;DHT22;8462;53.156;8.220;2022-07-18T13:00:15;33.40;30.00
7658;DHT22;8462;53.156;8.220;2022-07-18T13:02:44;33.60;29.90
7658;DHT22;8462;53.156;8.220;2022-07-18T13:05:11;33.70;29.70
7658;DHT22;8462;53.156;8.220;2022-07-18T13:07:38;33.50;29.60
7658;DHT22;8462;53.156;8.220;2022-07-18T13:10:07;33.50;29.80
7658;DHT22;8462;53.156;8.220;2022-07-18T13:12:34;33.50;29.70
7658;DHT22;8462;53.156;8.220;2022-07-18T13:15:01;33.50;29.80
7658;DHT22;8462;53.156;8.220;2022-07-18T13:17:28;33.50;29.80
7658;DHT22;8462;53.156;8.220;2022-07-18T13:19:57;33.50;30.00
7658;DHT22;8462;53.156;8.220;2022-07-18T13:22:23;33.50;30.00
7658;DHT22;8462;53.156;8.220;2022-07-18T13:24:51;33.50;30.00
7658;DHT22;8462;53.156;8.220;2022-07-18T13:27:19;33.60;30.10
7658;DHT22;8462;53.156;8.220;2022-07-18T13:29:46;33.80;30.40
7658;DHT22;8462;53.156;8.220;2022-07-18T13:32:13;33.90;29.90
7658;DHT22;8462;53.156;8.220;2022-07-18T13:34:40;34.00;29.90
7658;DHT22;8462;53.156;8.220;2022-07-18T13:37:09;34.10;29.80
7658;DHT22;8462;53.156;8.220;2022-07-18T13:39:36;34.20;30.10
7658;DHT22;8462;53.156;8.220;2022-07-18T13:42:03;34.40;30.00
7658;DHT22;8462;53.156;8.220;2022-07-18T13:44:31;34.50;29.20
7658;DHT22;8462;53.156;8.220;2022-07-18T13:46:58;34.60;29.40
7658;DHT22;8462;53.156;8.220;2022-07-18T13:49:25;34.70;29.10
7658;DHT22;8462;53.156;8.220;2022-07-18T13:51:51;34.80;29.00
7658;DHT22;8462;53.156;8.220;2022-07-18T13:54:20;34.80;29.00
7658;DHT22;8462;53.156;8.220;2022-07-18T13:56:47;34.90;29.20
7658;DHT22;8462;53.156;8.220;2022-07-18T13:59:14;34.90;30.10
7658;DHT22;8462;53.156;8.220;2022-07-18T14:01:41;34.90;29.00
7658;DHT22;8462;53.156;8.220;2022-07-18T14:04:09;34.90;28.90
7658;DHT22;8462;53.156;8.220;2022-07-18T14:06:36;34.70;29.10
7658;DHT22;8462;53.156;8.220;2022-07-18T14:09:03;34.70;29.20
7658;DHT22;8462;53.156;8.220;2022-07-18T14:11:32;34.80;29.50
7658;DHT22;8462;53.156;8.220;2022-07-18T14:14:00;34.70;29.50
7658;DHT22;8462;53.156;8.220;2022-07-18T14:16:28;34.70;29.70
7658;DHT22;8462;53.156;8.220;2022-07-18T14:18:55;34.60;29.60
7658;DHT22;8462;53.156;8.220;2022-07-18T14:21:21;34.70;29.80
7658;DHT22;8462;53.156;8.220;2022-07-18T14:23:49;34.70;29.50
7658;DHT22;8462;53.156;8.220;2022-07-18T14:26:16;34.60;29.70
7658;DHT22;8462;53.156;8.220;2022-07-18T14:28:44;34.40;29.70
7658;DHT22;8462;53.156;8.220;2022-07-18T14:31:11;34.20;29.90
7658;DHT22;8462;53.156;8.220;2022-07-18T14:33:38;34.00;29.90
7658;DHT22;8462;53.156;8.220;2022-07-18T14:36:05;33.90;29.90
7658;DHT22;8462;53.156;8.220;2022-07-18T14:38:32;33.80;30.00
7658;DHT22;8462;53.156;8.220;2022-07-18T14:40:59;33.70;30.00
7658;DHT22;8462;53.156;8.220;2022-07-18T14:43:26;33.70;30.00
7658;DHT22;8462;53.156;8.220;2022-07-18T14:45:54;33.70;30.50
7658;DHT22;8462;53.156;8.220;2022-07-18T14:48:22;33.70;30.00
7658;DHT22;8462;53.156;8.220;2022-07-18T14:50:49;33.60;30.00
7658;DHT22;8462;53.156;8.220;2022-07-18T14:53:16;33.60;30.90
7658;DHT22;8462;53.156;8.220;2022-07-18T14:55:43;33.50;30.20
7658;DHT22;8462;53.156;8.220;2022-07-18T14:58:10;33.50;30.30
7658;DHT22;8462;53.156;8.220;2022-07-18T15:00:37;33.40;30.40
7658;DHT22;8462;53.156;8.220;2022-07-18T15:03:05;33.40;30.70
7658;DHT22;8462;53.156;8.220;2022-07-18T15:05:32;33.30;30.70
7658;DHT22;8462;53.156;8.220;2022-07-18T15:07:59;33.30;30.80
7658;DHT22;8462;53.156;8.220;2022-07-18T15:10:26;33.20;31.20
7658;DHT22;8462;53.156;8.220;2022-07-18T15:12:53;33.20;31.60
7658;DHT22;8462;53.156;8.220;2022-07-18T15:15:20;33.20;31.50
7658;DHT22;8462;53.156;8.220;2022-07-18T15:17:47;33.20;31.60
7658;DHT22;8462;53.156;8.220;2022-07-18T15:20:15;33.10;31.80
7658;DHT22;8462;53.156;8.220;2022-07-18T15:22:43;33.00;31.90
7658;DHT22;8462;53.156;8.220;2022-07-18T15:25:10;32.90;32.00
7658;DHT22;8462;53.156;8.220;2022-07-18T15:27:38;32.80;32.20
7658;DHT22;8462;53.156;8.220;2022-07-18T15:30:07;32.80;32.40
7658;DHT22;8462;53.156;8.220;2022-07-18T15:32:36;32.80;32.50
7658;DHT22;8462;53.156;8.220;2022-07-18T15:35:05;32.70;32.60
7658;DHT22;8462;53.156;8.220;2022-07-18T15:37:33;32.70;32.80
7658;DHT22;8462;53.156;8.220;2022-07-18T15:40:00;32.60;32.80
7658;DHT22;8462;53.156;8.220;2022-07-18T15:42:27;32.60;32.80
7658;DHT22;8462;53.156;8.220;2022-07-18T15:44:54;32.60;33.10
7658;DHT22;8462;53.156;8.220;2022-07-18T15:47:20;32.60;33.40
7658;DHT22;8462;53.156;8.220;2022-07-18T15:49:47;32.60;33.50
7658;DHT22;8462;53.156;8.220;2022-07-18T15:52:14;32.60;33.20
7658;DHT22;8462;53.156;8.220;2022-07-18T15:54:42;32.60;33.20
7658;DHT22;8462;53.156;8.220;2022-07-18T15:57:09;32.50;33.20
7658;DHT22;8462;53.156;8.220;2022-07-18T15:59:36;32.60;33.20
7658;DHT22;8462;53.156;8.220;2022-07-18T16:02:04;32.50;32.90
7658;DHT22;8462;53.156;8.220;2022-07-18T16:04:32;32.40;33.00
7658;DHT22;8462;53.156;8.220;2022-07-18T16:06:59;32.40;33.50
7658;DHT22;8462;53.156;8.220;2022-07-18T16:09:26;32.40;33.40
7658;DHT22;8462;53.156;8.220;2022-07-18T16:11:54;32.30;33.20